sensor_id;sensor_type;location;lat;lon;timestamp;P1;durP1;ratioP1;P2;durP2;ratioP2
71503;SDS011;59323;50.874;7.028;2023-05-20T00:02:07;2.83;;;1.10;;
71503;SDS011;59323;50.874;7.028;2023-05-20T00:04:32;4.27;;;1.57;;
71503;SDS011;59323;50.874;7.028;2023-05-20T00:06:57;4.63;;;1.43;;
71503;SDS011;59323;50.874;7.028;2023-05-20T00:09:22;3.93;;;1.23;;
71503;SDS011;59323;50.874;7.028;2023-05-20T00:11:48;3.20;;;1.30;;
71503;SDS011;59323;50.874;7.028;2023-05-20T00:14:13;3.97;;;1.30;;
71503;SDS011;59323;50.874;7.028;2023-05-20T00:16:38;4.07;;;1.30;;
71503;SDS011;59323;50.874;7.028;2023-05-20T00:19:04;3.40;;;1.20;;
71503;SDS011;59323;50.874;7.028;2023-05-20T00:21:29;5.13;;;1.97;;
71503;SDS011;59323;50.874;7.028;2023-05-20T00:23:55;3.97;;;1.20;;
71503;SDS011;59323;50.874;7.028;2023-05-20T00:26:20;3.30;;;1.37;;
71503;SDS011;59323;50.874;7.028;2023-05-20T00:28:46;3.65;;;1.25;;
71503;SDS011;59323;50.874;7.028;2023-05-20T00:31:11;4.80;;;1.50;;
71503;SDS011;59323;50.874;7.028;2023-05-20T00:33:37;7.07;;;1.47;;
71503;SDS011;59323;50.874;7.028;2023-05-20T00:36:03;4.32;;;1.30;;
71503;SDS011;59323;50.874;7.028;2023-05-20T00:38:28;2.70;;;1.00;;
71503;SDS011;59323;50.874;7.028;2023-05-20T00:40:54;4.27;;;1.90;;
71503;SDS011;59323;50.874;7.028;2023-05-20T00:43:19;3.50;;;1.30;;
71503;SDS011;59323;50.874;7.028;2023-05-20T00:45:45;4.50;;;1.17;;
71503;SDS011;59323;50.874;7.028;2023-05-20T00:48:11;3.20;;;1.30;;
71503;SDS011;59323;50.874;7.028;2023-05-20T00:50:37;7.77;;;1.50;;
71503;SDS011;59323;50.874;7.028;2023-05-20T00:53:03;5.03;;;1.30;;
71503;SDS011;59323;50.874;7.028;2023-05-20T00:55:29;4.68;;;1.20;;
71503;SDS011;59323;50.874;7.028;2023-05-20T00:57:55;4.65;;;1.27;;
71503;SDS011;59323;50.874;7.028;2023-05-20T01:00:20;3.40;;;1.20;;
71503;SDS011;59323;50.874;7.028;2023-05-20T01:02:46;4.80;;;1.40;;
71503;SDS011;59323;50.874;7.028;2023-05-20T01:05:11;3.93;;;1.10;;
71503;SDS011;59323;50.874;7.028;2023-05-20T01:07:37;5.22;;;1.25;;
71503;SDS011;59323;50.874;7.028;2023-05-20T01:10:02;5.93;;;1.50;;
71503;SDS011;59323;50.874;7.028;2023-05-20T01:12:34;4.63;;;1.73;;
71503;SDS011;59323;50.874;7.028;2023-05-20T01:15:07;6.30;;;1.60;;
71503;SDS011;59323;50.874;7.028;2023-05-20T01:17:35;6.47;;;1.20;;
71503;SDS011;59323;50.874;7.028;2023-05-20T01:20:04;4.22;;;1.33;;
71503;SDS011;59323;50.874;7.028;2023-05-20T01:22:35;4.88;;;1.33;;
71503;SDS011;59323;50.874;7.028;2023-05-20T01:25:01;4.33;;;1.50;;
71503;SDS011;59323;50.874;7.028;2023-05-20T01:27:27;4.00;;;1.40;;
71503;SDS011;59323;50.874;7.028;2023-05-20T01:29:54;6.27;;;1.37;;
71503;SDS011;59323;50.874;7.028;2023-05-20T01:32:24;4.53;;;1.52;;
71503;SDS011;59323;50.874;7.028;2023-05-20T01:34:55;4.13;;;1.40;;
71503;SDS011;59323;50.874;7.028;2023-05-20T01:37:22;4.07;;;1.53;;
71503;SDS011;59323;50.874;7.028;2023-05-20T01:39:49;3.15;;;1.10;;
71503;SDS011;59323;50.874;7.028;2023-05-20T01:42:15;3.42;;;1.30;;
71503;SDS011;59323;50.874;7.028;2023-05-20T01:44:42;4.20;;;1.70;;
71503;SDS011;59323;50.874;7.028;2023-05-20T01:47:08;4.18;;;1.40;;
71503;SDS011;59323;50.874;7.028;2023-05-20T01:49:33;4.33;;;1.50;;
71503;SDS011;59323;50.874;7.028;2023-05-20T01:51:58;3.83;;;1.33;;
71503;SDS011;59323;50.874;7.028;2023-05-20T01:54:24;3.30;;;1.37;;
71503;SDS011;59323;50.874;7.028;2023-05-20T01:56:49;3.65;;;1.40;;
71503;SDS011;59323;50.874;7.028;2023-05-20T01:59:15;3.57;;;1.40;;
71503;SDS011;59323;50.874;7.028;2023-05-20T02:01:40;4.73;;;1.23;;
71503;SDS011;59323;50.874;7.028;2023-05-20T02:04:06;4.43;;;1.30;;
71503;SDS011;59323;50.874;7.028;2023-05-20T02:06:31;4.43;;;1.33;;
71503;SDS011;59323;50.874;7.028;2023-05-20T02:08:56;3.63;;;1.47;;
71503;SDS011;59323;50.874;7.028;2023-05-20T02:11:22;4.60;;;1.30;;
71503;SDS011;59323;50.874;7.028;2023-05-20T02:13:48;6.13;;;1.50;;
71503;SDS011;59323;50.874;7.028;2023-05-20T02:16:14;4.47;;;1.67;;
71503;SDS011;59323;50.874;7.028;2023-05-20T02:18:39;3.90;;;1.60;;
71503;SDS011;59323;50.874;7.028;2023-05-20T02:21:04;4.30;;;1.60;;
71503;SDS011;59323;50.874;7.028;2023-05-20T02:23:30;4.40;;;1.33;;
71503;SDS011;59323;50.874;7.028;2023-05-20T02:25:55;3.70;;;1.60;;
71503;SDS011;59323;50.874;7.028;2023-05-20T02:28:21;5.15;;;1.25;;
71503;SDS011;59323;50.874;7.028;2023-05-20T02:30:46;4.20;;;1.53;;
71503;SDS011;59323;50.874;7.028;2023-05-20T02:33:12;3.27;;;1.30;;
71503;SDS011;59323;50.874;7.028;2023-05-20T02:35:38;5.10;;;1.77;;
71503;SDS011;59323;50.874;7.028;2023-05-20T02:38:03;4.55;;;1.67;;
71503;SDS011;59323;50.874;7.028;2023-05-20T02:40:29;4.90;;;1.40;;
71503;SDS011;59323;50.874;7.028;2023-05-20T02:42:54;3.30;;;1.23;;
71503;SDS011;59323;50.874;7.028;2023-05-20T02:45:20;4.27;;;1.10;;
71503;SDS011;59323;50.874;7.028;2023-05-20T02:47:45;4.30;;;1.40;;
71503;SDS011;59323;50.874;7.028;2023-05-20T02:50:10;6.18;;;1.70;;
71503;SDS011;59323;50.874;7.028;2023-05-20T02:52:36;5.40;;;1.40;;
71503;SDS011;59323;50.874;7.028;2023-05-20T02:55:01;5.07;;;1.30;;
71503;SDS011;59323;50.874;7.028;2023-05-20T02:57:26;3.50;;;1.33;;
71503;SDS011;59323;50.874;7.028;2023-05-20T02:59:52;5.87;;;1.93;;
71503;SDS011;59323;50.874;7.028;2023-05-20T03:02:19;3.63;;;1.30;;
71503;SDS011;59323;50.874;7.028;2023-05-20T03:04:44;3.67;;;1.43;;
71503;SDS011;59323;50.874;7.028;2023-05-20T03:07:11;3.75;;;1.55;;
71503;SDS011;59323;50.874;7.028;2023-05-20T03:09:36;4.13;;;1.40;;
71503;SDS011;59323;50.874;7.028;2023-05-20T03:12:02;3.53;;;1.48;;
71503;SDS011;59323;50.874;7.028;2023-05-20T03:14:27;3.40;;;1.10;;
71503;SDS011;59323;50.874;7.028;2023-05-20T03:16:53;3.13;;;1.37;;
71503;SDS011;59323;50.874;7.028;2023-05-20T03:19:21;4.15;;;1.90;;
71503;SDS011;59323;50.874;7.028;2023-05-20T03:21:46;4.73;;;1.40;;
71503;SDS011;59323;50.874;7.028;2023-05-20T03:24:12;3.63;;;1.30;;
71503;SDS011;59323;50.874;7.028;2023-05-20T03:26:38;4.93;;;1.30;;
71503;SDS011;59323;50.874;7.028;2023-05-20T03:29:07;4.28;;;1.80;;
71503;SDS011;59323;50.874;7.028;2023-05-20T03:31:32;4.32;;;1.35;;
71503;SDS011;59323;50.874;7.028;2023-05-20T03:33:58;5.03;;;1.97;;
71503;SDS011;59323;50.874;7.028;2023-05-20T03:36:23;4.93;;;1.67;;
71503;SDS011;59323;50.874;7.028;2023-05-20T03:38:49;4.28;;;1.73;;
71503;SDS011;59323;50.874;7.028;2023-05-20T03:41:14;4.03;;;1.60;;
71503;SDS011;59323;50.874;7.028;2023-05-20T03:43:39;3.83;;;1.60;;
71503;SDS011;59323;50.874;7.028;2023-05-20T03:46:05;5.40;;;1.43;;
71503;SDS011;59323;50.874;7.028;2023-05-20T03:48:30;5.23;;;1.53;;
71503;SDS011;59323;50.874;7.028;2023-05-20T03:50:55;3.30;;;1.30;;
71503;SDS011;59323;50.874;7.028;2023-05-20T03:53:21;4.97;;;1.42;;
71503;SDS011;59323;50.874;7.028;2023-05-20T03:55:46;3.40;;;1.23;;
71503;SDS011;59323;50.874;7.028;2023-05-20T03:58:12;4.00;;;1.60;;
71503;SDS011;59323;50.874;7.028;2023-05-20T04:00:39;5.70;;;1.85;;
71503;SDS011;59323;50.874;7.028;2023-05-20T04:03:05;5.30;;;1.77;;
71503;SDS011;59323;50.874;7.028;2023-05-20T04:05:30;3.85;;;1.50;;
71503;SDS011;59323;50.874;7.028;2023-05-20T04:07:56;3.90;;;1.40;;
71503;SDS011;59323;50.874;7.028;2023-05-20T04:10:21;4.93;;;1.52;;
71503;SDS011;59323;50.874;7.028;2023-05-20T04:12:47;4.23;;;1.60;;
71503;SDS011;59323;50.874;7.028;2023-05-20T04:15:12;5.53;;;1.70;;
71503;SDS011;59323;50.874;7.028;2023-05-20T04:17:38;4.25;;;1.48;;
71503;SDS011;59323;50.874;7.028;2023-05-20T04:20:04;3.65;;;1.40;;
71503;SDS011;59323;50.874;7.028;2023-05-20T04:22:31;5.43;;;1.63;;
71503;SDS011;59323;50.874;7.028;2023-05-20T04:24:56;6.68;;;1.63;;
71503;SDS011;59323;50.874;7.028;2023-05-20T04:27:23;5.38;;;1.70;;
71503;SDS011;59323;50.874;7.028;2023-05-20T04:29:49;4.70;;;1.98;;
71503;SDS011;59323;50.874;7.028;2023-05-20T04:32:17;7.57;;;1.80;;
71503;SDS011;59323;50.874;7.028;2023-05-20T04:34:43;6.78;;;2.00;;
71503;SDS011;59323;50.874;7.028;2023-05-20T04:37:09;4.63;;;1.55;;
71503;SDS011;59323;50.874;7.028;2023-05-20T04:39:35;4.90;;;1.92;;
71503;SDS011;59323;50.874;7.028;2023-05-20T04:42:01;4.63;;;1.70;;
71503;SDS011;59323;50.874;7.028;2023-05-20T04:44:27;3.78;;;1.40;;
71503;SDS011;59323;50.874;7.028;2023-05-20T04:46:53;4.80;;;1.92;;
71503;SDS011;59323;50.874;7.028;2023-05-20T04:49:20;4.30;;;1.30;;
71503;SDS011;59323;50.874;7.028;2023-05-20T04:51:45;4.13;;;1.38;;
71503;SDS011;59323;50.874;7.028;2023-05-20T04:54:14;3.97;;;1.50;;
71503;SDS011;59323;50.874;7.028;2023-05-20T04:56:41;4.63;;;1.58;;
71503;SDS011;59323;50.874;7.028;2023-05-20T04:59:07;4.30;;;1.85;;
71503;SDS011;59323;50.874;7.028;2023-05-20T05:01:33;4.40;;;1.63;;
71503;SDS011;59323;50.874;7.028;2023-05-20T05:03:58;3.40;;;1.63;;
71503;SDS011;59323;50.874;7.028;2023-05-20T05:06:24;5.13;;;1.70;;
71503;SDS011;59323;50.874;7.028;2023-05-20T05:08:49;8.00;;;1.87;;
71503;SDS011;59323;50.874;7.028;2023-05-20T05:11:15;6.63;;;2.10;;
71503;SDS011;59323;50.874;7.028;2023-05-20T05:13:40;4.43;;;1.70;;
71503;SDS011;59323;50.874;7.028;2023-05-20T05:16:05;4.10;;;1.70;;
71503;SDS011;59323;50.874;7.028;2023-05-20T05:18:31;5.03;;;1.70;;
71503;SDS011;59323;50.874;7.028;2023-05-20T05:21:00;4.50;;;2.10;;
71503;SDS011;59323;50.874;7.028;2023-05-20T05:23:26;7.70;;;2.25;;
71503;SDS011;59323;50.874;7.028;2023-05-20T05:25:51;4.77;;;1.87;;
71503;SDS011;59323;50.874;7.028;2023-05-20T05:28:17;5.88;;;2.03;;
71503;SDS011;59323;50.874;7.028;2023-05-20T05:30:43;5.30;;;2.17;;
71503;SDS011;59323;50.874;7.028;2023-05-20T05:33:08;5.73;;;2.00;;
71503;SDS011;59323;50.874;7.028;2023-05-20T05:35:33;4.93;;;1.93;;
71503;SDS011;59323;50.874;7.028;2023-05-20T05:37:59;5.87;;;2.27;;
71503;SDS011;59323;50.874;7.028;2023-05-20T05:40:24;5.33;;;2.20;;
71503;SDS011;59323;50.874;7.028;2023-05-20T05:42:50;5.45;;;2.35;;
71503;SDS011;59323;50.874;7.028;2023-05-20T05:45:15;5.60;;;2.20;;
71503;SDS011;59323;50.874;7.028;2023-05-20T05:47:41;7.57;;;2.30;;
71503;SDS011;59323;50.874;7.028;2023-05-20T05:50:06;6.15;;;2.05;;
71503;SDS011;59323;50.874;7.028;2023-05-20T05:52:32;7.03;;;2.10;;
71503;SDS011;59323;50.874;7.028;2023-05-20T05:54:57;6.00;;;1.90;;
71503;SDS011;59323;50.874;7.028;2023-05-20T05:57:23;5.10;;;2.17;;
71503;SDS011;59323;50.874;7.028;2023-05-20T05:59:48;5.20;;;2.03;;
71503;SDS011;59323;50.874;7.028;2023-05-20T06:02:13;6.63;;;2.20;;
71503;SDS011;59323;50.874;7.028;2023-05-20T06:04:39;5.13;;;1.80;;
71503;SDS011;59323;50.874;7.028;2023-05-20T06:07:05;6.63;;;2.22;;
71503;SDS011;59323;50.874;7.028;2023-05-20T06:09:30;5.57;;;2.00;;
71503;SDS011;59323;50.874;7.028;2023-05-20T06:11:55;6.57;;;2.20;;
71503;SDS011;59323;50.874;7.028;2023-05-20T06:14:21;5.07;;;1.97;;
71503;SDS011;59323;50.874;7.028;2023-05-20T06:16:46;5.97;;;2.50;;
71503;SDS011;59323;50.874;7.028;2023-05-20T06:19:11;4.97;;;2.20;;
71503;SDS011;59323;50.874;7.028;2023-05-20T06:21:37;6.10;;;2.20;;
71503;SDS011;59323;50.874;7.028;2023-05-20T06:24:02;6.70;;;2.03;;
71503;SDS011;59323;50.874;7.028;2023-05-20T06:26:28;4.47;;;1.88;;
71503;SDS011;59323;50.874;7.028;2023-05-20T06:28:54;6.00;;;2.30;;
71503;SDS011;59323;50.874;7.028;2023-05-20T06:31:19;5.60;;;1.98;;
71503;SDS011;59323;50.874;7.028;2023-05-20T06:33:44;9.07;;;2.83;;
71503;SDS011;59323;50.874;7.028;2023-05-20T06:36:10;6.23;;;2.30;;
71503;SDS011;59323;50.874;7.028;2023-05-20T06:38:35;5.23;;;2.13;;
71503;SDS011;59323;50.874;7.028;2023-05-20T06:41:01;5.50;;;2.03;;
71503;SDS011;59323;50.874;7.028;2023-05-20T06:43:26;5.30;;;2.30;;
71503;SDS011;59323;50.874;7.028;2023-05-20T06:45:52;4.93;;;2.07;;
71503;SDS011;59323;50.874;7.028;2023-05-20T06:48:18;6.18;;;2.00;;
71503;SDS011;59323;50.874;7.028;2023-05-20T06:50:43;5.57;;;2.17;;
71503;SDS011;59323;50.874;7.028;2023-05-20T06:53:09;5.40;;;2.03;;
71503;SDS011;59323;50.874;7.028;2023-05-20T06:55:35;5.72;;;2.50;;
71503;SDS011;59323;50.874;7.028;2023-05-20T06:58:01;5.43;;;2.30;;
71503;SDS011;59323;50.874;7.028;2023-05-20T07:00:26;6.77;;;2.57;;
71503;SDS011;59323;50.874;7.028;2023-05-20T07:02:52;6.57;;;2.13;;
71503;SDS011;59323;50.874;7.028;2023-05-20T07:05:17;4.97;;;2.00;;
71503;SDS011;59323;50.874;7.028;2023-05-20T07:07:42;5.10;;;2.23;;
71503;SDS011;59323;50.874;7.028;2023-05-20T07:10:08;6.47;;;2.25;;
71503;SDS011;59323;50.874;7.028;2023-05-20T07:12:33;6.27;;;2.30;;
71503;SDS011;59323;50.874;7.028;2023-05-20T07:14:59;6.38;;;2.20;;
71503;SDS011;59323;50.874;7.028;2023-05-20T07:17:25;4.67;;;2.20;;
71503;SDS011;59323;50.874;7.028;2023-05-20T07:19:51;6.93;;;2.40;;
71503;SDS011;59323;50.874;7.028;2023-05-20T07:22:17;5.00;;;2.27;;
71503;SDS011;59323;50.874;7.028;2023-05-20T07:24:42;4.80;;;2.20;;
71503;SDS011;59323;50.874;7.028;2023-05-20T07:27:08;5.97;;;2.20;;
71503;SDS011;59323;50.874;7.028;2023-05-20T07:29:34;5.40;;;2.27;;
71503;SDS011;59323;50.874;7.028;2023-05-20T07:32:00;5.10;;;2.13;;
71503;SDS011;59323;50.874;7.028;2023-05-20T07:34:26;6.65;;;2.10;;
71503;SDS011;59323;50.874;7.028;2023-05-20T07:36:51;7.00;;;2.37;;
71503;SDS011;59323;50.874;7.028;2023-05-20T07:39:17;5.07;;;2.30;;
71503;SDS011;59323;50.874;7.028;2023-05-20T07:41:43;5.18;;;2.25;;
71503;SDS011;59323;50.874;7.028;2023-05-20T07:44:08;6.57;;;2.30;;
71503;SDS011;59323;50.874;7.028;2023-05-20T07:46:35;7.35;;;2.50;;
71503;SDS011;59323;50.874;7.028;2023-05-20T07:49:02;6.30;;;2.47;;
71503;SDS011;59323;50.874;7.028;2023-05-20T07:51:27;6.73;;;2.47;;
71503;SDS011;59323;50.874;7.028;2023-05-20T07:53:53;6.33;;;2.10;;
71503;SDS011;59323;50.874;7.028;2023-05-20T07:56:19;5.70;;;2.38;;
71503;SDS011;59323;50.874;7.028;2023-05-20T07:58:51;5.18;;;2.35;;
71503;SDS011;59323;50.874;7.028;2023-05-20T08:01:20;6.03;;;2.50;;
71503;SDS011;59323;50.874;7.028;2023-05-20T08:03:46;6.60;;;1.97;;
71503;SDS011;59323;50.874;7.028;2023-05-20T08:06:11;6.03;;;2.27;;
71503;SDS011;59323;50.874;7.028;2023-05-20T08:08:36;4.97;;;2.10;;
71503;SDS011;59323;50.874;7.028;2023-05-20T08:11:04;5.15;;;2.05;;
71503;SDS011;59323;50.874;7.028;2023-05-20T08:13:29;5.40;;;2.40;;
71503;SDS011;59323;50.874;7.028;2023-05-20T08:15:55;6.27;;;2.13;;
71503;SDS011;59323;50.874;7.028;2023-05-20T08:18:20;5.40;;;2.00;;
71503;SDS011;59323;50.874;7.028;2023-05-20T08:20:46;5.47;;;2.72;;
71503;SDS011;59323;50.874;7.028;2023-05-20T08:23:12;5.23;;;2.30;;
71503;SDS011;59323;50.874;7.028;2023-05-20T08:25:37;7.17;;;2.20;;
71503;SDS011;59323;50.874;7.028;2023-05-20T08:28:03;7.15;;;2.22;;
71503;SDS011;59323;50.874;7.028;2023-05-20T08:30:30;6.88;;;2.50;;
71503;SDS011;59323;50.874;7.028;2023-05-20T08:32:56;5.13;;;2.10;;
71503;SDS011;59323;50.874;7.028;2023-05-20T08:35:22;5.55;;;2.40;;
71503;SDS011;59323;50.874;7.028;2023-05-20T08:37:48;5.23;;;2.20;;
71503;SDS011;59323;50.874;7.028;2023-05-20T08:40:13;6.53;;;2.15;;
71503;SDS011;59323;50.874;7.028;2023-05-20T08:42:44;6.73;;;2.93;;
71503;SDS011;59323;50.874;7.028;2023-05-20T08:45:09;5.57;;;2.20;;
71503;SDS011;59323;50.874;7.028;2023-05-20T08:47:37;6.32;;;2.67;;
71503;SDS011;59323;50.874;7.028;2023-05-20T08:50:06;10.65;;;2.50;;
71503;SDS011;59323;50.874;7.028;2023-05-20T08:52:33;6.57;;;2.23;;
71503;SDS011;59323;50.874;7.028;2023-05-20T08:55:01;4.78;;;2.25;;
71503;SDS011;59323;50.874;7.028;2023-05-20T08:57:27;6.35;;;2.55;;
71503;SDS011;59323;50.874;7.028;2023-05-20T08:59:54;7.17;;;2.77;;
71503;SDS011;59323;50.874;7.028;2023-05-20T09:02:19;6.20;;;2.30;;
71503;SDS011;59323;50.874;7.028;2023-05-20T09:04:44;6.70;;;2.23;;
71503;SDS011;59323;50.874;7.028;2023-05-20T09:07:10;4.77;;;2.30;;
71503;SDS011;59323;50.874;7.028;2023-05-20T09:09:35;5.32;;;2.33;;
71503;SDS011;59323;50.874;7.028;2023-05-20T09:12:01;5.33;;;2.30;;
71503;SDS011;59323;50.874;7.028;2023-05-20T09:14:27;5.47;;;2.40;;
71503;SDS011;59323;50.874;7.028;2023-05-20T09:16:54;7.43;;;2.60;;
71503;SDS011;59323;50.874;7.028;2023-05-20T09:19:23;6.00;;;2.50;;
71503;SDS011;59323;50.874;7.028;2023-05-20T09:21:50;6.05;;;2.45;;
71503;SDS011;59323;50.874;7.028;2023-05-20T09:24:24;6.60;;;2.20;;
71503;SDS011;59323;50.874;7.028;2023-05-20T09:26:50;5.70;;;2.20;;
71503;SDS011;59323;50.874;7.028;2023-05-20T09:29:17;5.70;;;2.00;;
71503;SDS011;59323;50.874;7.028;2023-05-20T09:31:47;4.90;;;2.20;;
71503;SDS011;59323;50.874;7.028;2023-05-20T09:34:14;4.88;;;2.30;;
71503;SDS011;59323;50.874;7.028;2023-05-20T09:36:40;4.80;;;2.10;;
71503;SDS011;59323;50.874;7.028;2023-05-20T09:39:08;7.03;;;2.58;;
71503;SDS011;59323;50.874;7.028;2023-05-20T09:41:38;5.78;;;2.83;;
71503;SDS011;59323;50.874;7.028;2023-05-20T09:44:27;5.55;;;2.45;;
71503;SDS011;59323;50.874;7.028;2023-05-20T09:46:55;6.35;;;2.67;;
71503;SDS011;59323;50.874;7.028;2023-05-20T09:49:21;11.30;;;2.67;;
71503;SDS011;59323;50.874;7.028;2023-05-20T09:51:47;5.03;;;2.40;;
71503;SDS011;59323;50.874;7.028;2023-05-20T09:54:15;7.15;;;2.30;;
71503;SDS011;59323;50.874;7.028;2023-05-20T09:56:45;6.50;;;2.20;;
71503;SDS011;59323;50.874;7.028;2023-05-20T09:59:12;6.15;;;2.50;;
71503;SDS011;59323;50.874;7.028;2023-05-20T10:01:40;5.40;;;2.40;;
71503;SDS011;59323;50.874;7.028;2023-05-20T10:04:06;4.57;;;2.30;;
71503;SDS011;59323;50.874;7.028;2023-05-20T10:16:50;5.75;;;2.58;;
71503;SDS011;59323;50.874;7.028;2023-05-20T10:19:34;7.27;;;2.87;;
71503;SDS011;59323;50.874;7.028;2023-05-20T10:24:36;5.22;;;2.47;;
71503;SDS011;59323;50.874;7.028;2023-05-20T10:27:07;5.47;;;2.67;;
71503;SDS011;59323;50.874;7.028;2023-05-20T10:29:44;4.27;;;2.23;;
71503;SDS011;59323;50.874;7.028;2023-05-20T10:32:11;5.25;;;2.60;;
71503;SDS011;59323;50.874;7.028;2023-05-20T10:34:47;6.40;;;2.67;;
71503;SDS011;59323;50.874;7.028;2023-05-20T10:37:28;7.95;;;2.80;;
71503;SDS011;59323;50.874;7.028;2023-05-20T10:40:12;6.03;;;2.50;;
71503;SDS011;59323;50.874;7.028;2023-05-20T10:42:39;5.67;;;2.77;;
71503;SDS011;59323;50.874;7.028;2023-05-20T10:45:06;5.97;;;2.63;;
71503;SDS011;59323;50.874;7.028;2023-05-20T10:47:32;6.13;;;2.55;;
71503;SDS011;59323;50.874;7.028;2023-05-20T10:49:58;8.60;;;2.40;;
71503;SDS011;59323;50.874;7.028;2023-05-20T10:52:26;6.15;;;2.85;;
71503;SDS011;59323;50.874;7.028;2023-05-20T10:54:55;5.93;;;2.63;;
71503;SDS011;59323;50.874;7.028;2023-05-20T10:57:22;7.05;;;2.58;;
71503;SDS011;59323;50.874;7.028;2023-05-20T10:59:49;11.52;;;3.08;;
71503;SDS011;59323;50.874;7.028;2023-05-20T11:02:15;6.07;;;2.60;;
71503;SDS011;59323;50.874;7.028;2023-05-20T11:04:41;5.85;;;2.72;;
71503;SDS011;59323;50.874;7.028;2023-05-20T11:07:08;5.32;;;2.72;;
71503;SDS011;59323;50.874;7.028;2023-05-20T11:09:33;5.80;;;2.80;;
71503;SDS011;59323;50.874;7.028;2023-05-20T11:11:59;5.22;;;2.95;;
71503;SDS011;59323;50.874;7.028;2023-05-20T11:14:26;5.43;;;2.67;;
71503;SDS011;59323;50.874;7.028;2023-05-20T11:16:59;6.63;;;3.35;;
71503;SDS011;59323;50.874;7.028;2023-05-20T11:19:25;7.95;;;3.00;;
71503;SDS011;59323;50.874;7.028;2023-05-20T11:21:51;8.07;;;3.30;;
71503;SDS011;59323;50.874;7.028;2023-05-20T11:24:27;5.07;;;2.60;;
71503;SDS011;59323;50.874;7.028;2023-05-20T11:26:55;5.97;;;2.67;;
71503;SDS011;59323;50.874;7.028;2023-05-20T11:29:22;6.07;;;3.00;;
71503;SDS011;59323;50.874;7.028;2023-05-20T11:31:50;9.40;;;4.03;;
71503;SDS011;59323;50.874;7.028;2023-05-20T11:34:18;7.30;;;3.75;;
71503;SDS011;59323;50.874;7.028;2023-05-20T11:36:47;6.47;;;3.30;;
71503;SDS011;59323;50.874;7.028;2023-05-20T11:39:14;5.95;;;2.92;;
71503;SDS011;59323;50.874;7.028;2023-05-20T11:41:43;6.53;;;2.90;;
71503;SDS011;59323;50.874;7.028;2023-05-20T11:44:09;7.38;;;3.60;;
71503;SDS011;59323;50.874;7.028;2023-05-20T11:46:41;7.80;;;3.60;;
71503;SDS011;59323;50.874;7.028;2023-05-20T11:49:08;7.43;;;3.03;;
71503;SDS011;59323;50.874;7.028;2023-05-20T11:51:33;6.20;;;2.80;;
71503;SDS011;59323;50.874;7.028;2023-05-20T11:54:03;9.13;;;3.43;;
71503;SDS011;59323;50.874;7.028;2023-05-20T11:56:30;6.35;;;2.88;;
71503;SDS011;59323;50.874;7.028;2023-05-20T11:58:58;5.85;;;2.97;;
71503;SDS011;59323;50.874;7.028;2023-05-20T12:01:24;6.63;;;2.88;;
71503;SDS011;59323;50.874;7.028;2023-05-20T12:03:49;6.73;;;3.37;;
71503;SDS011;59323;50.874;7.028;2023-05-20T12:06:15;6.43;;;2.97;;
71503;SDS011;59323;50.874;7.028;2023-05-20T12:08:41;5.90;;;3.22;;
71503;SDS011;59323;50.874;7.028;2023-05-20T12:11:06;8.13;;;3.07;;
71503;SDS011;59323;50.874;7.028;2023-05-20T12:13:32;8.73;;;3.23;;
71503;SDS011;59323;50.874;7.028;2023-05-20T12:15:57;8.33;;;3.47;;
71503;SDS011;59323;50.874;7.028;2023-05-20T12:18:23;6.82;;;3.10;;
71503;SDS011;59323;50.874;7.028;2023-05-20T12:20:48;5.83;;;2.77;;
71503;SDS011;59323;50.874;7.028;2023-05-20T12:23:13;5.90;;;3.20;;
71503;SDS011;59323;50.874;7.028;2023-05-20T12:25:39;7.10;;;3.30;;
71503;SDS011;59323;50.874;7.028;2023-05-20T12:28:04;6.47;;;3.00;;
71503;SDS011;59323;50.874;7.028;2023-05-20T12:30:30;6.68;;;3.60;;
71503;SDS011;59323;50.874;7.028;2023-05-20T12:32:56;6.53;;;3.30;;
71503;SDS011;59323;50.874;7.028;2023-05-20T12:35:25;10.43;;;3.70;;
71503;SDS011;59323;50.874;7.028;2023-05-20T12:38:01;6.82;;;3.38;;
71503;SDS011;59323;50.874;7.028;2023-05-20T12:40:26;5.80;;;3.00;;
71503;SDS011;59323;50.874;7.028;2023-05-20T12:42:51;6.37;;;3.60;;
71503;SDS011;59323;50.874;7.028;2023-05-20T12:45:17;5.17;;;2.70;;
71503;SDS011;59323;50.874;7.028;2023-05-20T12:47:42;6.30;;;3.10;;
71503;SDS011;59323;50.874;7.028;2023-05-20T12:50:08;6.97;;;3.30;;
71503;SDS011;59323;50.874;7.028;2023-05-20T12:52:34;8.65;;;3.60;;
71503;SDS011;59323;50.874;7.028;2023-05-20T12:54:59;7.47;;;3.37;;
71503;SDS011;59323;50.874;7.028;2023-05-20T12:57:25;6.77;;;3.27;;
71503;SDS011;59323;50.874;7.028;2023-05-20T12:59:53;6.50;;;3.03;;
71503;SDS011;59323;50.874;7.028;2023-05-20T13:02:19;5.50;;;2.60;;
71503;SDS011;59323;50.874;7.028;2023-05-20T13:04:44;7.70;;;3.47;;
71503;SDS011;59323;50.874;7.028;2023-05-20T13:07:10;8.20;;;3.20;;
71503;SDS011;59323;50.874;7.028;2023-05-20T13:09:35;7.00;;;2.97;;
71503;SDS011;59323;50.874;7.028;2023-05-20T13:12:01;6.60;;;2.90;;
71503;SDS011;59323;50.874;7.028;2023-05-20T13:14:26;6.88;;;3.33;;
71503;SDS011;59323;50.874;7.028;2023-05-20T13:16:52;7.87;;;3.10;;
71503;SDS011;59323;50.874;7.028;2023-05-20T13:19:19;8.98;;;3.35;;
71503;SDS011;59323;50.874;7.028;2023-05-20T13:21:46;7.15;;;3.40;;
71503;SDS011;59323;50.874;7.028;2023-05-20T13:24:11;6.43;;;3.30;;
71503;SDS011;59323;50.874;7.028;2023-05-20T13:26:37;8.15;;;3.50;;
71503;SDS011;59323;50.874;7.028;2023-05-20T13:29:03;14.52;;;3.75;;
71503;SDS011;59323;50.874;7.028;2023-05-20T13:31:31;6.13;;;3.50;;
71503;SDS011;59323;50.874;7.028;2023-05-20T13:33:57;9.18;;;3.53;;
71503;SDS011;59323;50.874;7.028;2023-05-20T13:36:24;7.03;;;2.80;;
71503;SDS011;59323;50.874;7.028;2023-05-20T13:38:53;7.32;;;3.22;;
71503;SDS011;59323;50.874;7.028;2023-05-20T13:41:18;6.17;;;3.03;;
71503;SDS011;59323;50.874;7.028;2023-05-20T13:43:44;7.70;;;2.90;;
71503;SDS011;59323;50.874;7.028;2023-05-20T13:46:10;8.17;;;3.17;;
71503;SDS011;59323;50.874;7.028;2023-05-20T13:48:36;7.70;;;3.00;;
71503;SDS011;59323;50.874;7.028;2023-05-20T13:51:01;9.87;;;3.10;;
71503;SDS011;59323;50.874;7.028;2023-05-20T13:53:27;6.90;;;3.10;;
71503;SDS011;59323;50.874;7.028;2023-05-20T13:55:52;7.45;;;2.90;;
71503;SDS011;59323;50.874;7.028;2023-05-20T13:58:18;7.43;;;3.13;;
71503;SDS011;59323;50.874;7.028;2023-05-20T14:00:43;6.77;;;2.93;;
71503;SDS011;59323;50.874;7.028;2023-05-20T14:03:09;7.22;;;3.20;;
71503;SDS011;59323;50.874;7.028;2023-05-20T14:05:34;7.17;;;2.90;;
71503;SDS011;59323;50.874;7.028;2023-05-20T14:08:00;8.60;;;3.60;;
71503;SDS011;59323;50.874;7.028;2023-05-20T14:10:26;10.43;;;3.40;;
71503;SDS011;59323;50.874;7.028;2023-05-20T14:12:56;7.25;;;3.17;;
71503;SDS011;59323;50.874;7.028;2023-05-20T14:15:22;6.70;;;3.60;;
71503;SDS011;59323;50.874;7.028;2023-05-20T14:17:52;6.68;;;3.22;;
71503;SDS011;59323;50.874;7.028;2023-05-20T14:20:20;7.63;;;3.40;;
71503;SDS011;59323;50.874;7.028;2023-05-20T14:22:46;6.38;;;3.20;;
71503;SDS011;59323;50.874;7.028;2023-05-20T14:25:11;9.13;;;3.37;;
71503;SDS011;59323;50.874;7.028;2023-05-20T14:27:39;8.37;;;3.43;;
71503;SDS011;59323;50.874;7.028;2023-05-20T14:30:05;8.85;;;3.47;;
71503;SDS011;59323;50.874;7.028;2023-05-20T14:32:31;13.02;;;3.92;;
71503;SDS011;59323;50.874;7.028;2023-05-20T14:34:59;6.87;;;3.37;;
71503;SDS011;59323;50.874;7.028;2023-05-20T14:37:27;8.18;;;4.03;;
71503;SDS011;59323;50.874;7.028;2023-05-20T14:39:57;7.13;;;3.28;;
71503;SDS011;59323;50.874;7.028;2023-05-20T14:42:26;7.60;;;3.30;;
71503;SDS011;59323;50.874;7.028;2023-05-20T14:44:54;5.80;;;3.10;;
71503;SDS011;59323;50.874;7.028;2023-05-20T14:47:19;11.85;;;3.22;;
71503;SDS011;59323;50.874;7.028;2023-05-20T14:49:46;7.27;;;2.90;;
71503;SDS011;59323;50.874;7.028;2023-05-20T14:52:13;7.70;;;3.13;;
71503;SDS011;59323;50.874;7.028;2023-05-20T14:54:39;6.85;;;3.40;;
71503;SDS011;59323;50.874;7.028;2023-05-20T14:57:07;6.30;;;2.97;;